Time;durP1;ratioP1;P1;durP2;ratioP2;P2;SDS_P1;SDS_P2;PMS_P1;PMS_P2;Temp;Humidity;BMP_temperature;BMP_pressure;BME280_temperature;BME280_humidity;BME280_pressure;Samples;Min_cycle;Max_cycle;Signal;HPM_P1;HPM_P2
2022/05/26 00:01:31;;;;;;;52.90;10.43;;;;;;;16.55;59.57;101562.78;5181006;28;20779;-48
2022/05/26 00:04:05;;;;;;;52.63;10.10;;;;;;;16.88;59.75;101625.88;5182190;28;20641;-48
2022/05/26 00:06:38;;;;;;;53.95;12.15;;;;;;;16.93;59.87;101640.38;5183407;28;20430;-48
2022/05/26 00:09:10;;;;;;;52.93;10.97;;;;;;;16.93;59.78;101640.38;5181500;28;20415;-49
2022/05/26 00:11:43;;;;;;;57.88;11.10;;;;;;;16.80;59.74;101618.75;5181143;28;20493;-47
2022/05/26 00:14:15;;;;;;;57.55;11.77;;;;;;;16.87;59.91;101640.22;5180588;28;20481;-46
2022/05/26 00:16:48;;;;;;;49.03;10.82;;;;;;;16.75;59.82;101621.06;5180982;28;20502;-47
2022/05/26 00:19:22;;;;;;;54.97;11.17;;;;;;;16.79;59.91;101638.44;5170753;28;20950;-45
2022/05/26 00:21:55;;;;;;;53.78;11.35;;;;;;;16.77;59.89;101637.75;5162627;28;20415;-46
2022/05/26 00:24:30;;;;;;;58.40;12.75;;;;;;;16.73;60.00;101645.25;5179178;28;20429;-49
2022/05/26 00:27:03;;;;;;;61.10;12.40;;;;;;;16.67;60.21;101650.44;5156447;28;20804;-49
2022/05/26 00:29:35;;;;;;;60.85;11.90;;;;;;;16.63;60.22;101659.75;5174405;28;20411;-49
2022/05/26 00:32:09;;;;;;;56.92;12.10;;;;;;;16.53;60.30;101634.09;5180152;28;20441;-47
2022/05/26 00:34:43;;;;;;;58.85;11.45;;;;;;;16.60;60.25;101656.44;5181922;28;20438;-47
2022/05/26 00:37:16;;;;;;;52.72;10.75;;;;;;;16.58;60.30;101653.09;5181615;28;20777;-50
2022/05/26 00:39:48;;;;;;;49.85;11.32;;;;;;;16.53;60.35;101660.78;5179762;28;20423;-46
2022/05/26 00:42:20;;;;;;;56.00;11.10;;;;;;;16.58;60.44;101663.78;5177160;28;20431;-49
2022/05/26 00:44:53;;;;;;;59.10;12.45;;;;;;;16.51;60.48;101640.63;5181553;28;20439;-45
2022/05/26 00:47:29;;;;;;;59.40;11.63;;;;;;;16.65;60.53;101660.44;5182449;28;20409;-47
2022/05/26 00:50:08;;;;;;;54.35;10.88;;;;;;;16.66;60.62;101654.09;5171615;28;20427;-46
2022/05/26 00:52:46;;;;;;;57.53;11.17;;;;;;;16.66;60.54;101659.41;5177676;28;20802;-48
2022/05/26 00:55:27;;;;;;;56.42;10.98;;;;;;;16.68;60.72;101662.75;5177092;28;20419;-47
2022/05/26 00:58:05;;;;;;;52.63;10.63;;;;;;;16.65;60.71;101663.09;5180234;28;20466;-52
2022/05/26 01:00:39;;;;;;;47.33;10.25;;;;;;;16.70;60.79;101666.94;5178176;28;20415;-49
2022/05/26 01:03:19;;;;;;;43.90;10.07;;;;;;;16.65;60.78;101658.59;5180189;28;20474;-47
2022/05/26 01:05:58;;;;;;;50.03;9.95;;;;;;;16.68;60.76;101668.09;5178946;28;20431;-49
2022/05/26 01:08:37;;;;;;;45.60;9.65;;;;;;;16.72;60.67;101672.06;5179292;28;20731;-46
2022/05/26 01:11:10;;;;;;;42.85;10.63;;;;;;;16.75;60.84;101679.75;5179978;28;20414;-51
2022/05/26 01:13:50;;;;;;;48.13;9.40;;;;;;;16.75;60.99;101664.59;5180671;28;20427;-49
2022/05/26 01:16:38;;;;;;;49.97;9.80;;;;;;;16.78;60.91;101674.09;5181342;28;20425;-47
2022/05/26 01:19:42;;;;;;;42.75;9.23;;;;;;;16.80;61.08;101682.78;5178942;28;20927;-45
2022/05/26 01:22:51;;;;;;;43.72;9.40;;;;;;;16.82;60.98;101680.78;5180272;28;20910;-47
2022/05/26 01:26:06;;;;;;;48.90;9.13;;;;;;;16.82;60.88;101686.13;5137361;28;20469;-48
2022/05/26 01:29:26;;;;;;;49.33;11.07;;;;;;;16.83;60.85;101698.44;5134731;28;20493;-46
2022/05/26 01:32:08;;;;;;;46.67;9.70;;;;;;;16.82;60.88;101686.94;5094232;28;20402;-49
2022/05/26 01:34:52;;;;;;;48.92;10.50;;;;;;;16.86;60.96;101697.28;5140294;28;21143;-48
2022/05/26 01:37:32;;;;;;;40.07;8.50;;;;;;;16.88;60.82;101714.78;5136865;28;20779;-47
2022/05/26 01:40:19;;;;;;;46.20;9.63;;;;;;;16.89;60.85;101696.94;5136901;28;20532;-47
2022/05/26 01:43:02;;;;;;;52.50;9.90;;;;;;;16.84;60.81;101700.09;5142230;28;20907;-49
2022/05/26 01:45:45;;;;;;;39.05;7.65;;;;;;;16.87;60.88;101699.75;5143646;28;20426;-47
2022/05/26 01:48:25;;;;;;;43.47;8.63;;;;;;;16.90;60.85;101709.25;5143955;28;20561;-49
2022/05/26 01:51:03;;;;;;;36.58;9.30;;;;;;;16.90;60.75;101699.41;5143265;28;20773;-46
2022/05/26 01:53:46;;;;;;;40.05;8.55;;;;;;;16.95;60.73;101707.75;5137064;28;20398;-48
2022/05/26 01:56:25;;;;;;;37.58;8.68;;;;;;;16.96;60.69;101703.25;5140358;28;20484;-49
2022/05/26 01:59:06;;;;;;;37.80;7.38;;;;;;;16.97;60.68;101716.44;5145505;28;20422;-50
2022/05/26 02:01:44;;;;;;;30.58;7.25;;;;;;;16.93;60.62;101709.75;5141893;28;20524;-47
2022/05/26 02:04:22;;;;;;;29.33;5.53;;;;;;;16.95;60.56;101726.44;5141886;28;20438;-47
2022/05/26 02:07:06;;;;;;;31.20;6.20;;;;;;;16.93;60.60;101725.75;5119706;28;20499;-47
2022/05/26 02:09:42;;;;;;;28.63;6.38;;;;;;;16.91;60.59;101733.13;5141976;28;20412;-50
2022/05/26 02:12:25;;;;;;;26.47;6.00;;;;;;;16.91;60.51;101727.78;5139883;28;20911;-49
2022/05/26 02:15:04;;;;;;;29.42;5.97;;;;;;;16.91;60.34;101733.13;5142596;28;20442;-49
2022/05/26 02:17:40;;;;;;;25.65;6.43;;;;;;;16.87;60.31;101728.28;5139373;28;20780;-49
2022/05/26 02:20:19;;;;;;;29.88;5.95;;;;;;;16.90;60.29;101736.78;5143091;28;20506;-46
2022/05/26 02:22:57;;;;;;;24.88;5.90;;;;;;;16.81;59.97;101738.63;5144040;28;20436;-49
2022/05/26 02:25:31;;;;;;;26.55;5.05;;;;;;;16.38;60.11;101659.78;5181700;28;20489;-49
2022/05/26 02:28:04;;;;;;;29.23;5.90;;;;;;;16.85;59.87;101763.16;5181992;28;20996;-47
2022/05/26 02:30:40;;;;;;;24.55;5.10;;;;;;;16.51;59.87;101681.47;5183273;28;20490;-49
2022/05/26 02:33:15;;;;;;;23.55;5.40;;;;;;;16.80;59.77;101730.78;5185061;28;20426;-48
2022/05/26 02:35:52;;;;;;;23.83;5.03;;;;;;;16.78;59.75;101744.28;5187762;28;20561;-48
2022/05/26 02:38:27;;;;;;;22.77;5.03;;;;;;;16.73;59.89;101743.13;5185197;28;20853;-48
2022/05/26 02:41:01;;;;;;;22.67;4.60;;;;;;;16.69;59.84;101744.44;5179763;28;20423;-46
2022/05/26 02:43:35;;;;;;;27.23;5.22;;;;;;;16.66;59.84;101755.44;5184341;28;20500;-47
2022/05/26 02:46:16;;;;;;;23.10;4.72;;;;;;;16.52;59.76;101739.13;5178828;28;20485;-48
2022/05/26 02:49:10;;;;;;;24.50;5.07;;;;;;;16.57;59.74;101763.47;5184200;28;20415;-49
2022/05/26 02:51:49;;;;;;;19.25;4.55;;;;;;;16.43;59.75;101740.09;5180359;28;20437;-50
2022/05/26 02:54:34;;;;;;;27.33;6.13;;;;;;;16.50;59.79;101767.78;5182821;28;20430;-51
2022/05/26 02:57:21;;;;;;;22.23;4.68;;;;;;;16.47;59.68;101768.09;5179868;28;20418;-49
2022/05/26 03:00:02;;;;;;;21.05;4.45;;;;;;;16.45;59.67;101767.44;5185723;28;20419;-47
2022/05/26 03:02:45;;;;;;;15.60;3.87;;;;;;;16.42;59.76;101767.78;5179851;28;20922;-46
2022/05/26 03:05:23;;;;;;;29.33;4.93;;;;;;;16.30;59.65;101755.78;5185314;28;20423;-52
2022/05/26 03:08:01;;;;;;;21.03;4.90;;;;;;;16.37;59.76;101772.75;5181799;28;21374;-50
2022/05/26 03:10:34;;;;;;;25.80;5.38;;;;;;;16.32;59.80;101767.94;5183619;28;20876;-47
2022/05/26 03:13:06;;;;;;;17.67;4.30;;;;;;;16.24;59.64;101761.75;5183714;28;20548;-46
2022/05/26 03:15:40;;;;;;;26.63;5.80;;;;;;;16.24;59.80;101767.09;5183242;28;20423;-46
2022/05/26 03:18:12;;;;;;;25.40;5.03;;;;;;;16.20;59.65;101765.75;5184470;28;20430;-46
2022/05/26 03:20:45;;;;;;;16.45;3.75;;;;;;;16.20;59.66;101777.25;5181064;28;20674;-45
2022/05/26 03:23:19;;;;;;;19.85;4.28;;;;;;;16.19;59.66;101772.06;5180781;28;20425;-46
2022/05/26 03:25:51;;;;;;;26.02;5.25;;;;;;;16.19;59.50;101774.75;5182408;28;20929;-49
2022/05/26 03:28:24;;;;;;;23.25;4.40;;;;;;;16.18;59.84;101773.09;5180031;28;20431;-47
2022/05/26 03:30:57;;;;;;;19.75;4.32;;;;;;;16.19;59.85;101774.75;5182270;28;20407;-45
2022/05/26 03:40:45;;;;;;;20.80;4.22;;;;;;;16.20;59.84;101782.59;5184541;28;20825;-45
2022/05/26 03:42:05;;;;;;;11.45;3.33;;;;;;;16.27;59.80;101788.09;5181806;28;20408;-47
2022/05/26 03:44:37;;;;;;;15.73;3.78;;;;;;;16.32;59.74;101786.59;5179695;28;20947;-46
2022/05/26 03:47:10;;;;;;;14.85;3.13;;;;;;;16.17;59.64;101782.09;5182987;28;20425;-51
2022/05/26 03:49:42;;;;;;;12.13;3.28;;;;;;;16.27;59.67;101783.59;5181866;28;20493;-49
2022/05/26 03:52:30;;;;;;;18.70;4.07;;;;;;;16.37;59.69;101794.09;5178633;28;20510;-45
2022/05/26 03:55:09;;;;;;;10.93;3.17;;;;;;;16.39;59.89;101799.28;5185839;28;20497;-46
2022/05/26 03:57:43;;;;;;;12.57;3.30;;;;;;;16.39;59.70;101816.09;5179343;28;20422;-47
2022/05/26 04:00:20;;;;;;;10.88;3.13;;;;;;;16.40;59.70;101807.09;5181811;28;20418;-49
2022/05/26 04:02:52;;;;;;;15.13;3.45;;;;;;;16.41;59.78;101810.59;5178395;28;20450;-46
2022/05/26 04:05:27;;;;;;;17.80;2.67;;;;;;;16.42;59.78;101817.63;5152943;28;21002;-47
2022/05/26 04:08:00;;;;;;;15.45;3.53;;;;;;;16.45;59.68;101818.13;5180482;28;20898;-47
2022/05/26 04:10:34;;;;;;;13.98;3.25;;;;;;;16.45;59.67;101818.13;5179156;28;20931;-48
2022/05/26 04:13:07;;;;;;;12.18;3.60;;;;;;;16.39;59.67;101812.59;5176004;28;20498;-46
2022/05/26 04:15:39;;;;;;;13.98;3.22;;;;;;;16.46;59.47;101825.09;5180150;28;20419;-53
2022/05/26 04:18:12;;;;;;;13.73;3.30;;;;;;;16.47;59.45;101821.44;5182024;28;20510;-50
2022/05/26 04:20:45;;;;;;;15.10;3.35;;;;;;;16.47;59.50;101831.25;5179386;28;20740;-51
2022/05/26 04:23:17;;;;;;;12.77;2.75;;;;;;;16.46;59.45;101834.94;5179076;28;20923;-50
2022/05/26 04:25:53;;;;;;;12.95;2.22;;;;;;;16.26;59.52;101802.41;5182446;28;20429;-49
2022/05/26 04:28:25;;;;;;;14.63;2.97;;;;;;;16.45;59.48;101833.28;5179707;28;20407;-46
2022/05/26 04:30:58;;;;;;;18.00;3.93;;;;;;;16.51;59.48;101840.63;5182056;28;20699;-47
2022/05/26 04:33:32;;;;;;;14.57;2.90;;;;;;;16.52;59.49;101836.94;5178332;28;20812;-47
2022/05/26 04:36:06;;;;;;;7.18;2.50;;;;;;;16.53;59.24;101836.78;5177791;28;20426;-49
2022/05/26 04:38:38;;;;;;;10.93;2.40;;;;;;;16.41;59.25;101816.75;5180242;28;20489;-50
2022/05/26 04:41:14;;;;;;;14.35;2.72;;;;;;;16.56;59.32;101840.94;5180769;28;20419;-52
2022/05/26 04:43:47;;;;;;;9.73;2.30;;;;;;;16.55;59.13;101848.13;5183193;28;20423;-47
2022/05/26 04:46:19;;;;;;;11.43;2.97;;;;;;;16.61;59.17;101851.97;5183576;28;20473;-48
2022/05/26 04:48:52;;;;;;;12.20;2.75;;;;;;;16.65;59.01;101855.97;5181778;28;20403;-48
2022/05/26 04:51:24;;;;;;;14.30;3.10;;;;;;;16.70;58.97;101858.16;5171311;28;20494;-47
2022/05/26 04:53:57;;;;;;;10.77;3.15;;;;;;;16.65;58.94;101849.81;5181290;28;20420;-46
2022/05/26 04:56:31;;;;;;;9.67;2.83;;;;;;;16.81;58.87;101864.00;5182360;28;20441;-47
2022/05/26 04:59:06;;;;;;;13.35;2.65;;;;;;;16.94;58.65;101860.00;5184326;28;20455;-49
2022/05/26 05:01:39;;;;;;;14.30;2.92;;;;;;;16.89;58.71;101825.84;5177853;28;20402;-49
2022/05/26 05:04:11;;;;;;;9.45;2.75;;;;;;;17.18;58.59;101859.16;5149159;28;20423;-48
2022/05/26 05:06:44;;;;;;;13.05;2.38;;;;;;;17.35;58.33;101868.00;5179600;28;20776;-48
2022/05/26 05:09:17;;;;;;;14.52;3.00;;;;;;;17.49;58.27;101864.63;5179093;28;20419;-48
2022/05/26 05:11:51;;;;;;;13.68;2.80;;;;;;;17.61;58.08;101867.78;5180630;28;20457;-49
2022/05/26 05:14:24;;;;;;;10.77;2.25;;;;;;;18.06;57.67;101869.00;5180092;28;20411;-49
2022/05/26 05:16:56;;;;;;;12.13;2.75;;;;;;;19.07;56.56;101881.41;5178914;28;20494;-51
2022/05/26 05:19:29;;;;;;;11.63;2.50;;;;;;;20.01;55.40;101873.78;5178213;28;20506;-51
2022/05/26 05:22:09;;;;;;;14.20;2.83;;;;;;;19.99;55.33;101881.16;5179795;28;20918;-51
2022/05/26 05:24:46;;;;;;;6.43;1.73;;;;;;;19.78;55.40;101863.97;5172092;28;20482;-47
2022/05/26 05:27:24;;;;;;;8.05;1.83;;;;;;;19.42;55.49;101836.22;5182017;28;20518;-47
2022/05/26 05:30:00;;;;;;;10.23;2.33;;;;;;;19.66;55.34;101902.97;5176830;28;20434;-48
2022/05/26 05:32:39;;;;;;;12.57;2.45;;;;;;;19.64;55.29;101901.50;5180300;28;20484;-51
2022/05/26 05:35:16;;;;;;;10.15;1.85;;;;;;;19.67;55.11;101899.28;5178165;28;20420;-51
2022/05/26 05:37:49;;;;;;;10.63;2.30;;;;;;;19.93;54.93;101898.81;5181104;28;20911;-49
2022/05/26 05:40:22;;;;;;;7.00;2.00;;;;;;;20.65;53.98;101900.75;5181168;28;20442;-50
2022/05/26 05:42:56;;;;;;;10.07;1.98;;;;;;;22.37;52.32;101900.34;5164821;28;20452;-54
2022/05/26 05:45:28;;;;;;;6.50;1.58;;;;;;;24.16;50.09;101903.00;5165607;28;20484;-53
2022/05/26 05:48:01;;;;;;;8.38;1.98;;;;;;;25.87;48.00;101903.84;5155500;28;20806;-55
2022/05/26 05:50:33;;;;;;;9.77;1.63;;;;;;;27.31;46.13;101903.88;5186258;28;20508;-55
2022/05/26 05:53:06;;;;;;;7.68;1.85;;;;;;;28.54;44.35;101900.22;5182820;28;20415;-53
2022/05/26 05:55:39;;;;;;;7.38;2.30;;;;;;;29.62;43.13;101903.63;5180066;28;20408;-50
2022/05/26 05:58:13;;;;;;;8.35;1.75;;;;;;;30.61;41.55;101913.50;5153544;28;20421;-50
2022/05/26 06:00:45;;;;;;;4.72;1.52;;;;;;;31.45;40.49;101901.09;5177531;28;20510;-50
2022/05/26 06:03:18;;;;;;;7.47;1.83;;;;;;;32.22;39.60;101904.16;5178036;28;20509;-50
2022/05/26 06:05:51;;;;;;;6.70;1.83;;;;;;;32.89;38.28;101908.66;5181811;28;20415;-51
2022/05/26 06:08:24;;;;;;;6.72;1.30;;;;;;;33.23;37.33;101864.25;5178118;28;20564;-53
2022/05/26 06:10:58;;;;;;;6.95;1.58;;;;;;;34.08;36.46;101924.56;5178335;28;20430;-50
2022/05/26 06:13:33;;;;;;;9.23;2.05;;;;;;;34.48;35.65;101927.34;5177345;28;20927;-55
2022/05/26 06:16:06;;;;;;;6.03;1.25;;;;;;;34.68;35.07;101915.41;5177349;28;20418;-53
2022/05/26 06:18:39;;;;;;;7.70;1.60;;;;;;;34.96;34.59;101927.53;5182326;28;20503;-55
2022/05/26 06:21:11;;;;;;;7.88;1.63;;;;;;;35.33;33.87;101927.72;5179395;28;20439;-51
2022/05/26 06:23:44;;;;;;;6.65;1.67;;;;;;;35.65;33.55;101909.84;5180097;28;20425;-53
2022/05/26 06:26:16;;;;;;;7.03;1.70;;;;;;;35.97;32.99;101931.13;5177847;28;20822;-50
2022/05/26 06:37:27;;;;;;;6.70;1.90;;;;;;;36.93;31.08;101930.00;5182954;28;20427;-54
2022/05/26 06:40:06;;;;;;;6.55;1.98;;;;;;;37.18;30.65;101933.44;5183338;28;20780;-54
2022/05/26 06:42:38;;;;;;;8.63;1.73;;;;;;;37.30;30.52;101928.25;5177074;28;20434;-54
2022/05/26 06:45:13;;;;;;;7.40;2.03;;;;;;;37.43;30.06;101937.66;5181546;28;20522;-54
2022/05/26 06:47:49;;;;;;;7.07;1.70;;;;;;;37.44;30.03;101944.78;5189146;28;20411;-53
2022/05/26 06:50:23;;;;;;;7.32;1.92;;;;;;;37.33;29.76;101930.41;5192861;28;20413;-53
2022/05/26 06:52:56;;;;;;;8.57;1.73;;;;;;;37.37;29.80;101951.53;5174989;28;20864;-52
2022/05/26 06:55:28;;;;;;;8.70;2.05;;;;;;;37.46;29.71;101965.44;5188635;28;20419;-55
2022/05/26 06:58:03;;;;;;;4.93;1.52;;;;;;;37.47;29.53;101950.53;5181142;28;20443;-55
2022/05/26 07:00:37;;;;;;;5.32;1.77;;;;;;;37.52;29.16;101947.69;5179177;28;20466;-52
2022/05/26 07:03:14;;;;;;;6.65;1.77;;;;;;;37.38;29.27;101952.31;5181684;28;20893;-51
2022/05/26 07:05:47;;;;;;;7.88;1.55;;;;;;;37.31;29.30;101963.75;5185976;28;20506;-54
2022/05/26 07:08:20;;;;;;;7.80;2.13;;;;;;;37.28;29.22;101972.63;5170375;28;20439;-54
2022/05/26 07:10:54;;;;;;;4.18;1.27;;;;;;;37.15;29.30;101979.75;5182243;28;20927;-53
2022/05/26 07:13:27;;;;;;;7.88;2.30;;;;;;;37.04;29.22;101963.69;5184369;28;20430;-54
2022/05/26 07:16:02;;;;;;;6.07;1.52;;;;;;;37.07;29.03;101974.94;5177553;28;20430;-51
2022/05/26 07:18:35;;;;;;;6.32;1.70;;;;;;;36.64;29.33;101960.50;5172276;28;20891;-47
2022/05/26 07:21:10;;;;;;;5.68;1.73;;;;;;;35.79;29.77;101995.13;5185056;28;20415;-54
2022/05/26 07:23:43;;;;;;;5.57;1.42;;;;;;;34.95;30.46;101983.53;5188995;28;20526;-54
2022/05/26 07:26:16;;;;;;;8.02;1.85;;;;;;;34.04;30.63;101971.97;5194330;28;20443;-53
2022/05/26 07:28:51;;;;;;;7.28;2.30;;;;;;;33.41;31.09;101948.56;5187023;28;20506;-49
2022/05/26 07:31:25;;;;;;;5.50;1.83;;;;;;;33.49;31.23;101961.69;5172105;28;20905;-52
2022/05/26 07:34:00;;;;;;;7.53;1.85;;;;;;;33.86;31.03;101970.66;5184256;28;20557;-53
2022/05/26 07:42:17;;;;;;;7.60;2.30;;;;;;;34.08;30.50;101973.91;5181478;28;20776;-49
2022/05/26 07:44:52;;;;;;;6.00;1.70;;;;;;;33.97;30.80;101961.28;5187359;28;21203;-53
2022/05/26 07:47:29;;;;;;;7.00;1.60;;;;;;;34.02;30.99;101993.34;5198149;28;20530;-53
2022/05/26 07:50:08;;;;;;;10.73;1.85;;;;;;;34.00;30.93;101992.81;5188995;28;20415;-51
2022/05/26 07:52:40;;;;;;;6.90;2.20;;;;;;;34.00;30.89;101998.28;5179421;28;20415;-50
2022/05/26 07:55:13;;;;;;;7.88;2.42;;;;;;;33.49;30.98;101975.38;5177222;28;20408;-52
2022/05/26 07:57:46;;;;;;;6.67;1.70;;;;;;;33.27;31.44;101964.75;5183353;28;20446;-48
2022/05/26 08:00:20;;;;;;;7.03;1.98;;;;;;;33.25;31.58;101994.31;5180884;28;20467;-52
2022/05/26 08:02:54;;;;;;;8.30;2.13;;;;;;;33.19;31.42;102005.53;5171896;28;20505;-51
2022/05/26 08:05:27;;;;;;;6.43;2.30;;;;;;;33.01;31.40;102004.97;5180653;28;20854;-50
2022/05/26 08:08:02;;;;;;;7.68;1.92;;;;;;;32.52;31.92;102012.78;5176880;28;20444;-50
2022/05/26 08:10:35;;;;;;;7.32;2.30;;;;;;;32.14;32.16;102010.16;5176482;28;20405;-50
2022/05/26 08:13:11;;;;;;;8.02;2.10;;;;;;;31.69;32.37;102019.75;5176967;28;20494;-54
2022/05/26 08:15:43;;;;;;;8.77;2.53;;;;;;;31.38;32.80;102020.63;5165329;28;20442;-52
2022/05/26 08:18:17;;;;;;;11.10;2.47;;;;;;;31.22;32.85;102023.19;5184461;28;20506;-51
2022/05/26 08:20:50;;;;;;;7.93;2.30;;;;;;;31.19;32.85;102023.72;5183931;28;20522;-51
2022/05/26 08:23:25;;;;;;;10.25;2.17;;;;;;;31.10;32.82;102019.00;5180565;28;20423;-53
2022/05/26 08:25:58;;;;;;;9.02;2.17;;;;;;;30.85;32.99;102014.94;5176431;28;20418;-52
2022/05/26 08:28:31;;;;;;;9.30;2.22;;;;;;;30.81;32.93;102032.06;5179605;28;20411;-47
2022/05/26 08:31:04;;;;;;;9.85;2.08;;;;;;;30.71;33.08;102025.38;5178222;28;20407;-53
2022/05/26 08:33:38;;;;;;;11.52;2.25;;;;;;;30.54;33.01;102024.66;5167209;28;20409;-51
2022/05/26 08:36:15;;;;;;;13.35;2.97;;;;;;;30.50;32.88;102037.13;5169809;28;20502;-52
2022/05/26 08:38:48;;;;;;;8.18;2.30;;;;;;;30.17;33.09;102032.63;5159314;28;20428;-51
2022/05/26 08:41:24;;;;;;;6.53;2.20;;;;;;;29.92;33.37;102049.41;5187699;28;20923;-50
2022/05/26 08:44:02;;;;;;;8.35;2.20;;;;;;;29.85;33.46;102041.41;5180157;28;20456;-51
2022/05/26 08:46:43;;;;;;;6.22;2.35;;;;;;;29.74;33.39;102037.75;5187748;28;20419;-51
2022/05/26 08:49:24;;;;;;;11.25;2.28;;;;;;;29.80;33.32;102046.81;5189431;28;20415;-54
2022/05/26 08:52:03;;;;;;;7.63;2.47;;;;;;;29.41;33.33;101984.94;5188767;28;20431;-55
2022/05/26 08:54:42;;;;;;;7.30;1.60;;;;;;;29.73;33.26;102044.25;5184606;28;20414;-45
2022/05/26 08:57:19;;;;;;;7.97;2.28;;;;;;;29.52;33.65;102040.38;5185628;28;20411;-49
2022/05/26 08:59:52;;;;;;;10.68;2.28;;;;;;;29.60;33.39;102058.97;5177254;28;20844;-50
2022/05/26 09:02:29;;;;;;;10.13;1.90;;;;;;;29.69;33.32;102054.00;5169986;28;20416;-48
2022/05/26 09:05:06;;;;;;;9.68;3.15;;;;;;;29.78;33.09;102060.66;5166425;28;20423;-51
2022/05/26 09:13:41;;;;;;;10.57;2.37;;;;;;;28.95;33.66;102046.69;5165794;28;20555;-48
2022/05/26 09:16:15;;;;;;;10.20;2.05;;;;;;;28.63;34.11;102061.84;5185264;28;20419;-53
2022/05/26 09:19:09;;;;;;;10.57;2.50;;;;;;;28.50;34.15;102052.88;5174540;28;20434;-47
2022/05/26 09:21:44;;;;;;;7.50;2.30;;;;;;;28.43;34.24;102062.22;5156103;28;20515;-51
2022/05/26 09:24:24;;;;;;;13.13;2.67;;;;;;;28.22;34.44;102071.81;5179875;28;21080;-49
2022/05/26 09:27:02;;;;;;;7.50;2.00;;;;;;;27.98;34.58;102082.69;5170665;28;20433;-47
2022/05/26 09:29:38;;;;;;;12.80;2.58;;;;;;;27.87;34.57;102090.81;5172141;28;20423;-49
2022/05/26 09:32:18;;;;;;;10.25;2.50;;;;;;;27.86;34.46;102079.13;5171165;28;20780;-51
2022/05/26 09:35:10;;;;;;;9.80;2.90;;;;;;;27.56;34.69;102068.31;5178444;28;20458;-48
2022/05/26 09:37:49;;;;;;;10.65;2.40;;;;;;;27.81;34.35;102076.28;5163987;28;20420;-48
2022/05/26 09:40:27;;;;;;;7.85;2.13;;;;;;;27.84;34.70;102077.72;5170169;28;20451;-48
2022/05/26 09:43:03;;;;;;;12.57;2.47;;;;;;;27.76;34.62;102085.13;5181282;28;20445;-50
2022/05/26 09:45:45;;;;;;;6.47;2.42;;;;;;;27.71;34.72;102095.03;5169402;28;20419;-46
2022/05/26 09:48:21;;;;;;;10.25;2.88;;;;;;;27.64;34.71;102091.59;5179359;28;20414;-50
2022/05/26 09:51:04;;;;;;;12.95;3.08;;;;;;;27.61;34.77;102081.22;5170500;28;20426;-50
2022/05/26 09:53:41;;;;;;;11.68;2.83;;;;;;;27.54;34.91;102084.03;5168578;28;20413;-49
2022/05/26 09:56:27;;;;;;;9.52;2.25;;;;;;;27.49;35.01;102094.75;5171997;28;20494;-46
2022/05/26 09:59:00;;;;;;;10.05;2.60;;;;;;;26.95;35.17;102045.03;5139932;28;20495;-48
2022/05/26 10:01:43;;;;;;;12.40;3.40;;;;;;;27.01;35.47;102087.50;5171323;28;20838;-53
2022/05/26 10:05:09;;;;;;;14.68;2.85;;;;;;;27.02;35.63;102100.81;5174347;28;20423;-47
2022/05/26 10:08:05;;;;;;;12.27;3.13;;;;;;;26.94;35.55;102098.41;5140499;28;20854;-48
2022/05/26 10:10:46;;;;;;;13.10;3.17;;;;;;;27.03;35.44;102113.28;5175381;28;20763;-55
2022/05/26 10:13:32;;;;;;;17.33;3.00;;;;;;;26.92;35.58;102111.38;5175731;28;20475;-51
2022/05/26 10:16:13;;;;;;;13.63;3.10;;;;;;;26.84;35.71;102103.53;5176537;28;20492;-52
2022/05/26 10:19:10;;;;;;;9.73;2.67;;;;;;;26.75;35.75;102107.63;5173730;28;20787;-50
2022/05/26 10:22:11;;;;;;;10.97;2.90;;;;;;;26.66;35.80;102102.53;5173326;28;20525;-48
2022/05/26 10:25:08;;;;;;;10.63;2.90;;;;;;;26.59;35.73;102098.22;5173675;28;20423;-52
2022/05/26 10:27:56;;;;;;;12.70;2.70;;;;;;;26.39;36.15;102101.13;5157901;28;20531;-46
2022/05/26 10:30:41;;;;;;;11.13;3.05;;;;;;;26.05;36.43;102099.81;5176907;28;20512;-52
2022/05/26 10:33:36;;;;;;;10.38;3.25;;;;;;;25.37;36.70;102025.59;5174613;28;20544;-51
2022/05/26 10:36:21;;;;;;;15.15;3.35;;;;;;;25.68;36.84;102108.59;5170218;28;20914;-50
2022/05/26 10:39:08;;;;;;;13.95;3.33;;;;;;;25.58;36.84;102099.28;5180785;28;20527;-53
2022/05/26 10:41:45;;;;;;;12.63;3.25;;;;;;;25.42;36.92;102095.25;5177551;28;20399;-51
2022/05/26 10:44:26;;;;;;;14.40;3.35;;;;;;;25.22;37.18;102096.22;5170786;28;20762;-49
2022/05/26 10:47:06;;;;;;;10.13;2.90;;;;;;;25.17;37.43;102098.72;5182970;28;20415;-47
2022/05/26 10:49:44;;;;;;;14.30;3.47;;;;;;;25.21;37.39;102088.28;5170108;28;20474;-52
2022/05/26 10:52:26;;;;;;;11.10;2.90;;;;;;;25.26;37.17;102083.91;5175660;28;20428;-51
2022/05/26 10:55:04;;;;;;;9.00;2.45;;;;;;;25.34;37.11;102099.06;5172139;28;20465;-51
2022/05/26 10:57:44;;;;;;;10.15;2.65;;;;;;;25.44;37.11;102098.56;5172378;28;20403;-52
2022/05/26 11:00:21;;;;;;;10.20;2.88;;;;;;;25.63;37.17;102103.00;5173083;28;20441;-49
2022/05/26 11:02:59;;;;;;;19.17;3.47;;;;;;;25.80;36.91;102102.47;5161426;28;20428;-52
2022/05/26 11:05:38;;;;;;;8.77;2.80;;;;;;;25.83;36.89;102102.03;5175018;28;20920;-50
2022/05/26 11:08:27;;;;;;;8.97;2.50;;;;;;;25.79;36.96;102103.50;5177740;28;20512;-47
2022/05/26 11:11:04;;;;;;;9.57;2.85;;;;;;;25.80;37.22;102097.03;5175274;28;20467;-51
2022/05/26 11:13:46;;;;;;;11.48;2.78;;;;;;;25.67;37.07;102084.44;5172546;28;20576;-49
2022/05/26 11:19:29;;;;;;;11.00;2.90;;;;;;;25.65;37.12;102092.81;5163283;28;20444;-50
2022/05/26 11:22:03;;;;;;;11.43;3.20;;;;;;;25.44;37.36;102103.97;5158759;28;20497;-49
2022/05/26 11:24:36;;;;;;;15.50;3.05;;;;;;;25.36;37.26;102085.31;5161867;28;20441;-52
2022/05/26 11:27:14;;;;;;;10.48;2.88;;;;;;;25.39;37.32;102076.75;5161237;28;20415;-47
2022/05/26 11:29:52;;;;;;;12.13;3.40;;;;;;;25.45;37.37;102095.63;5172865;28;20439;-52
2022/05/26 11:38:32;;;;;;;12.88;3.53;;;;;;;25.26;37.58;102064.97;5172449;28;20962;-47
2022/05/26 11:41:07;;;;;;;15.07;3.08;;;;;;;25.36;37.69;102096.13;5172848;28;20663;-50
2022/05/26 11:43:45;;;;;;;16.90;4.13;;;;;;;25.30;37.77;102095.97;5168991;28;20423;-49
2022/05/26 11:46:56;;;;;;;11.75;3.15;;;;;;;25.25;37.88;102092.25;5154093;28;20822;-52
2022/05/26 11:50:27;;;;;;;12.05;3.05;;;;;;;25.35;37.84;102099.88;5174340;28;20927;-49
2022/05/26 11:53:07;;;;;;;13.18;3.08;;;;;;;25.39;37.80;102101.09;5172187;28;20780;-51
2022/05/26 11:55:53;;;;;;;15.30;3.40;;;;;;;25.49;37.81;102107.69;5169125;28;20514;-50
2022/05/26 11:58:38;;;;;;;9.07;2.55;;;;;;;25.59;37.56;102107.22;5169839;28;20785;-49
2022/05/26 12:01:35;;;;;;;14.75;3.53;;;;;;;25.74;37.39;102105.00;5177958;28;20778;-52
2022/05/26 12:04:26;;;;;;;13.25;3.13;;;;;;;25.76;37.46;102100.19;5172469;28;20410;-52
2022/05/26 12:07:03;;;;;;;10.82;2.90;;;;;;;25.65;37.56;102106.34;5175208;28;20442;-52
2022/05/26 12:09:41;;;;;;;8.15;2.58;;;;;;;25.56;37.40;102102.22;5175289;28;20426;-47
2022/05/26 12:12:34;;;;;;;9.73;2.72;;;;;;;25.45;37.69;102100.22;5171308;28;20589;-47
2022/05/26 12:15:16;;;;;;;18.52;2.40;;;;;;;25.47;37.61;102104.38;5166696;28;20407;-45
2022/05/26 12:17:55;;;;;;;9.75;2.70;;;;;;;25.46;37.76;102107.31;5175577;28;20427;-47
2022/05/26 12:20:35;;;;;;;13.15;2.90;;;;;;;25.36;38.02;102115.88;5176895;28;20439;-46
2022/05/26 12:23:28;;;;;;;11.13;2.85;;;;;;;25.12;38.02;102082.31;5143176;28;20460;-46
2022/05/26 12:26:46;;;;;;;15.07;3.88;;;;;;;25.20;38.03;102102.88;5159382;28;20439;-46
2022/05/26 12:30:01;;;;;;;14.13;2.42;;;;;;;25.16;38.04;102105.19;5154007;28;20465;-50
2022/05/26 12:32:37;;;;;;;11.45;2.53;;;;;;;24.91;38.23;102082.63;5150752;28;20431;-47
2022/05/26 12:35:27;;;;;;;13.27;3.28;;;;;;;25.07;38.11;102092.94;5125224;28;20519;-48
2022/05/26 12:38:11;;;;;;;10.60;2.80;;;;;;;25.20;38.06;102092.88;5150487;28;20418;-51
2022/05/26 12:41:02;;;;;;;14.88;3.08;;;;;;;25.01;38.13;102077.56;5147764;28;20861;-47
2022/05/26 12:44:21;;;;;;;13.35;2.58;;;;;;;25.21;37.92;102116.19;5149679;28;20429;-49
2022/05/26 12:47:09;;;;;;;9.77;2.70;;;;;;;25.08;38.03;102091.88;5140422;28;20762;-49